createdAt,value
2023-01-25T01:46:18.701Z,14.43
2023-01-25T01:51:26.859Z,18.33
2023-01-25T01:56:35.545Z,16.73
2023-01-25T02:01:43.368Z,18.47
2023-01-25T02:06:51.157Z,15.50
2023-01-25T02:11:56.239Z,19.63
2023-01-25T11:06:37.472Z,30.90
2023-01-25T11:11:42.934Z,31.87
2023-01-25T11:16:50.337Z,29.40
2023-01-25T11:21:59.279Z,32.57
2023-01-25T11:27:21.965Z,30.07
2023-01-25T11:32:27.415Z,31.63
2023-01-25T11:37:43.159Z,27.23
2023-01-25T11:43:00.077Z,29.47
2023-01-25T11:48:25.460Z,33.43
2023-01-25T11:53:50.954Z,32.10
2023-01-25T11:59:12.167Z,28.47
2023-01-25T12:04:50.124Z,30.97
2023-01-25T12:10:07.783Z,34.30
2023-01-25T12:15:34.291Z,31.40
2023-01-25T12:20:51.662Z,34.77
2023-01-25T12:26:09.922Z,31.03
2023-01-25T12:31:20.135Z,34.27
2023-01-25T12:36:28.200Z,30.53
2023-01-25T12:41:47.103Z,31.33
2023-01-25T12:46:59.117Z,69.07
2023-01-25T12:52:08.366Z,31.83
2023-01-25T12:57:22.530Z,35.17
2023-01-25T13:02:53.503Z,32.27
2023-01-25T13:08:06.545Z,33.87
2023-01-25T13:13:25.999Z,35.03
2023-01-25T13:18:43.968Z,34.57
2023-01-25T13:23:52.141Z,35.70
2023-01-25T13:29:01.237Z,34.23
2023-01-25T13:34:06.410Z,36.00
2023-01-25T13:39:45.048Z,37.27
2023-01-25T13:44:54.664Z,32.13
2023-01-25T13:50:03.658Z,32.60
2023-01-25T13:55:20.374Z,35.17
2023-01-25T14:00:28.798Z,34.77
2023-01-25T14:05:33.942Z,36.13
2023-01-25T14:10:39.330Z,42.20
2023-01-25T14:15:58.257Z,37.73
2023-01-25T14:21:18.641Z,39.80
2023-01-25T14:26:26.904Z,40.40
2023-01-25T14:31:38.420Z,36.43
2023-01-25T14:36:43.741Z,36.70
2023-01-25T14:42:00.962Z,46.60
2023-01-25T14:47:45.244Z,44.47
2023-01-25T14:52:53.069Z,44.07
2023-01-25T14:58:02.067Z,45.73
2023-01-25T15:03:10.055Z,46.43
2023-01-25T15:08:27.694Z,42.53
2023-01-25T15:13:32.980Z,42.33
2023-01-25T15:18:47.809Z,46.97
2023-01-25T15:23:52.956Z,47.80
2023-01-25T15:28:59.934Z,49.83
2023-01-25T15:34:07.836Z,49.83
2023-01-25T15:39:16.518Z,47.87
2023-01-25T15:44:22.387Z,48.87
2023-01-25T15:49:31.631Z,45.30
2023-01-25T15:54:36.749Z,48.87
2023-01-25T15:59:41.954Z,44.73
2023-01-25T16:04:49.851Z,50.97
2023-01-25T16:09:55.299Z,52.37
2023-01-25T16:15:00.456Z,52.33
2023-01-25T16:20:10.195Z,50.33
2023-01-25T16:25:15.728Z,53.43
2023-01-25T16:30:24.064Z,51.57
2023-01-25T16:35:32.037Z,47.17
2023-01-25T16:40:39.872Z,44.83
2023-01-25T16:45:45.445Z,55.43
2023-01-25T16:50:55.349Z,50.87
2023-01-25T16:56:02.273Z,53.27
2023-01-25T17:01:12.772Z,60.13
2023-01-25T17:06:22.826Z,61.43
2023-01-25T17:11:28.080Z,55.73
2023-01-25T17:16:33.506Z,62.93
2023-01-25T17:21:41.225Z,58.30
2023-01-25T17:26:46.279Z,55.93
2023-01-25T17:31:51.628Z,60.03
2023-01-25T17:36:59.557Z,54.07
2023-01-25T17:42:06.527Z,52.47
2023-01-25T17:47:11.595Z,43.90
2023-01-25T17:52:19.372Z,48.00
2023-01-25T17:57:26.419Z,50.97
2023-01-25T18:02:31.956Z,48.83
2023-01-25T18:07:39.804Z,51.90
2023-01-25T18:13:03.629Z,49.53
2023-01-25T18:18:09.613Z,53.17
2023-01-25T18:23:17.265Z,56.63
2023-01-25T18:28:22.583Z,49.90
2023-01-25T18:33:27.623Z,46.53
2023-01-25T18:38:35.562Z,53.50
2023-01-25T18:43:40.748Z,50.43
2023-01-25T18:48:47.261Z,42.33
2023-01-25T18:53:55.362Z,38.17
2023-01-25T18:59:01.024Z,34.73
2023-01-25T20:59:02.715Z,25.67
2023-01-25T21:04:09.633Z,24.33
2023-01-25T21:09:15.164Z,25.77
2023-01-25T21:14:22.999Z,24.50
2023-01-25T21:19:28.178Z,26.20
2023-01-25T21:24:33.299Z,30.50
2023-01-25T21:29:41.230Z,32.20
2023-01-25T21:34:46.893Z,32.37
2023-01-25T21:39:52.023Z,29.50
2023-01-25T21:45:12.379Z,30.47
2023-01-25T21:50:30.420Z,34.07
2023-01-25T21:55:35.539Z,36.20
2023-01-25T22:00:43.196Z,36.70
2023-01-25T22:05:48.268Z,43.57
2023-01-25T22:10:53.368Z,42.70
2023-01-25T22:16:04.021Z,49.40
2023-01-25T22:21:12.667Z,43.17
2023-01-25T22:26:19.710Z,41.33
2023-01-25T22:31:28.373Z,43.47
2023-01-25T22:36:34.248Z,39.67
2023-01-25T22:41:40.187Z,40.33
2023-01-25T22:46:48.611Z,43.33
2023-01-25T22:51:53.655Z,43.47
2023-01-25T22:56:59.762Z,45.70
2023-01-25T23:02:07.511Z,43.13
2023-01-25T23:07:18.646Z,48.97
2023-01-25T23:12:23.694Z,51.70
2023-01-25T23:17:44.070Z,54.23
2023-01-25T23:22:49.393Z,55.27
2023-01-25T23:27:54.417Z,61.07
